Terminal Aerodrome Forecast
Issued by NWS

Home | Current Version | Previous Version | Text Only | Print | Product List | Glossary On
Versions: 1 2 3 4 5 6 7 8 9 10 11 12 13
000
FTUS41 KBTV 221129
TAFMSS
TAF
KMSS 221129Z 2212/2312 05012KT P6SM OVC025
     FM221600 06012G22KT P6SM VCSH OVC015
     FM222100 06015G25KT 2SM -SN BR OVC015
     FM222300 06015G25KT 1/2SM -SNPL FZFG OVC008
     FM230200 06012G18KT 1/2SM -FZRAPL FZFG OVC006
     FM230400 06011G17KT 2SM -FZRA BR OVC008
     FM230800 06010KT 3SM -SN BR OVC010=

USA.gov is the U.S. government's official web portal to all federal, state and local government web resources and services.